Aviation Digital Data Service (ADDS)

Output produced by METARs form (1547 UTC 27 May 2015)
found at http://www.aviationweather.gov/adds/metars/
 
KTHV 271453Z AUTO 20011G16KT 10SM CLR 26/21 A3015 RMK AO2 SLP208 T02610211 56003
KTHV 271353Z AUTO 23006KT 10SM SCT018 26/21 A3015 RMK AO2 SLP208 T02560206
KTHV 271318Z AUTO 22009KT 10SM BKN015 24/21 A3016 RMK AO2 T02440206
KTHV 271253Z AUTO 22009KT 10SM BKN013 24/21 A3016 RMK AO2 SLP211 T02390206
KTHV 271153Z AUTO 21008KT 10SM OVC013 23/20 A3016 RMK AO2 SLP210 T02280200 10228 20217 53012
KTHV 271135Z AUTO 21006KT 10SM BKN013 23/20 A3015 RMK AO2 T02280200
KTHV 271053Z AUTO 21004KT 10SM CLR 22/19 A3014 RMK AO2 SLP203 T02220194
KTHV 270953Z AUTO 19005KT 10SM FEW075 SCT100 22/19 A3012 RMK AO2 SLP198 T02170189
KTHV 270853Z AUTO 18004KT 10SM BKN100 22/18 A3012 RMK AO2 SLP198 T02170183 56006
KTHV 270753Z AUTO VRB03KT 10SM CLR 22/18 A3012 RMK AO2 SLP199 T02170183
KTHV 270653Z AUTO 18004KT 10SM CLR 22/19 A3013 RMK AO2 SLP201 T02220189
KTHV 270553Z AUTO VRB05KT 10SM CLR 22/19 A3014 RMK AO2 SLP204 T02220189 10267 20222 58003
KTHV 270453Z AUTO VRB05KT 10SM CLR 22/19 A3014 RMK AO2 SLP204 T02220189 402890161
KTHV 270353Z AUTO 19006KT 10SM CLR 23/19 A3014 RMK AO2 SLP206 T02330189
KTHV 270253Z AUTO 19004KT 10SM SCT065 24/19 A3015 RMK AO2 SLP206 T02390189 53009
KTHV 270153Z AUTO VRB04KT 10SM CLR 24/19 A3014 RMK AO2 SLP203 T02440194
KTHV 270053Z AUTO 15005KT 10SM CLR 25/19 A3013 RMK AO2 SLP201 T02500194
KTHV 262353Z AUTO VRB03KT 10SM CLR 26/19 A3012 RMK AO2 SLP197 T02610189 10289 20261 56008
KTHV 262253Z AUTO VRB03KT 10SM CLR 28/19 A3012 RMK AO2 SLP199 T02780189
KTHV 262153Z AUTO 20004KT 10SM CLR 28/18 A3014 RMK AO2 SLP204 T02830183
KTHV 262053Z AUTO 20008KT 10SM CLR 28/18 A3015 RMK AO2 SLP207 T02780183 58014
KTHV 261953Z AUTO 22005KT 10SM CLR 28/18 A3016 RMK AO2 SLP211 T02780178
KTHV 261853Z AUTO 22006KT 10SM CLR 28/18 A3017 RMK AO2 SLP216 T02830178
KTHV 261753Z AUTO 23007KT 200V280 10SM CLR 29/18 A3019 RMK AO2 SLP220 T02890178 10289 20206 58008
KTHV 261653Z AUTO VRB04KT 10SM CLR 28/17 A3020 RMK AO2 SLP225 T02780172
KTHV 261553Z AUTO VRB04KT 10SM CLR 27/17 A3021 RMK AO2 SLP228 T02670167
KTHV 261453Z AUTO VRB03KT 10SM CLR 26/17 A3021 RMK AO2 SLP228 T02560167 58003
KTHV 261353Z AUTO VRB04KT 10SM CLR 24/16 A3022 RMK AO2 SLP231 T02390161
KTHV 261253Z AUTO VRB03KT 10SM CLR 22/16 A3022 RMK AO2 SLP232 T02220156
KTHV 261153Z AUTO VRB05KT 10SM CLR 21/15 A3022 RMK AO2 SLP231 T02060150 10206 20161 52013
KTHV 261053Z AUTO 00000KT 10SM CLR 19/15 A3020 RMK AO2 SLP226 T01940150 $
KTHV 260753Z AUTO 08003KT 10SM CLR 16/14 A3017 RMK AO2 SLP216 T01610139 $
KTHV 260653Z AUTO VRB04KT 10SM CLR 19/15 A3018 RMK AO2 SLP217 T01940150 $
KTHV 260553Z AUTO 00000KT 10SM CLR 19/15 A3018 RMK AO2 SLP218 T01940150 10256 20194 58004 $
KTHV 260453Z AUTO VRB04KT 10SM CLR 20/15 A3018 RMK AO2 SLP220 T02000150 402830139 $
KTHV 260353Z AUTO 15005KT 10SM CLR 21/14 A3019 RMK AO2 SLP222 T02110144 $